Sturgeon Bay, WI (54235)

10:52 PM CDT on July 23, 2017 (GMT -0500)
Redwood | | Change Station

Elev 676 ft 44.83 °N, 87.39 °W | Updated 11 seconds ago

Light Rain
Light Rain
64.4 °F
Feels Like 64.4 °F
N
1.3
Wind Variable Wind from SSE
Gusts 7.4 mph

Today
High -- | Low -- °F
--% Chance of Precip.
Yesterday
High -- | Low -- °F
Precip. -- in
Pressure 29.98 in
Visibility 10.0 miles
Clouds
Dew Point 62 °F
Humidity 94%
Rainfall 0.07 in
Snow Depth Not available.
5:25 AM 8:25 PM
New Moon, 1% visible
METAR KSUE 240256Z AUTO 02015G20KT 10SM -RA 17/15 A2993 RMK AO2 RAB55 SLP152 6//// T01720150 51016 PNO $
Pressure 29.98 in
Visibility 10.0 miles
Clouds
Dew Point 62 °F
Humidity 94%
Rainfall 0.07 in
Snow Depth Not available.
5:25 AM 8:25 PM
New Moon, 1% visible
METAR KSUE 240256Z AUTO 02015G20KT 10SM -RA 17/15 A2993 RMK AO2 RAB55 SLP152 6//// T01720150 51016 PNO $

Get Severe Weather Alerts

Thanks for signing up!

Be on the lookout for a verification email in your inbox.

You'll start receiving the daily forecast at 6 AM.

×

10-Day Weather Forecast

Almanac

Astronomy

Jul. 23, 2017 Rise Set
Actual Time
Civil Twilight
Nautical Twilight
Astronomical Twilight
Moon
Length of Visible Light
Length of Day
Tomorrow will be .
, % of the Moon is Illuminated

Today's Extremes

State Highs State Lows

Community

WunderPhotos

Category 6

Welcome to Category 6. This is the collective home for Weather Underground's featured writeups by Dr. Jeff Masters (right), Bob Henson (left), Chris Burt, and other regular contributors.

Nearby

Air Quality

  Air Quality AQ Index Pollutant
Not available.

Snow Depth

Station Depth Elevation

Earthquake Activity

City Distance Mag. Time & Date
Minimum magnitude displayed is 2.5.

Coastal Water Temperatures

Place Temperature

Stations

Nearby Weather Stations

Station Location Temp. Windchill Dew Point Humidity Wind Precip. Elev Updated Type
                   

Watches & Warnings

There are currently no watches in effect.